Skip Navigation Links Skip Navigation Links

Current Weather

Gary Muni, Gary, Ind.

For information only: do not use for flight planning or navigation.
Latest weather
Observation time Saturday, October 19, 2019 5:45 AM CDT
Local time Saturday, October 19, 2019 6:06 AM CDT
Flight conditions Visual Meteorological Conditions
Winds
Wind direction South-Southeast (150°)
Wind speed 8 mph
Visibility 10 mi.
Sky condition
Ceiling unlimited
Sky clear
Temperature 46°F
Dewpoint 37°F
Altimeter 29.91 in.Hg
Derived measurements
Relative humidity 71%
Wind chill 42°F
Density altitude -123 ft.
METAR KGYY 191045Z 15007KT 10SM SKC 08/03 A2991

Settings

Location code

InnerDrive.Weather 4.0.6770.0 Release CLR 4.0.30319.42000
Copyright ©2018 Inner Drive Technology. All rights reserved. Portions Copyright ©1986-2018 David Braverman.

Find weather

Site navigation


Skip Navigation Links

Place info

Page info

PayPal - The safer, easier way to pay online!

Return home.

Copyright ©2019 Inner Drive Technology. Purveyors of fine, hand-crafted computer software. Page printed 2019-10-19T11:06:36 UTC.